sensor_id;sensor_type;location;lat;lon;timestamp;P1;durP1;ratioP1;P2;durP2;ratioP2
8317;SDS011;4196;48.926;8.964;2023-06-10T00:00:46;7.80;;;6.60;;
8317;SDS011;4196;48.926;8.964;2023-06-10T00:03:32;8.67;;;6.47;;
8317;SDS011;4196;48.926;8.964;2023-06-10T00:06:19;8.10;;;6.97;;
8317;SDS011;4196;48.926;8.964;2023-06-10T00:09:07;10.47;;;6.77;;
8317;SDS011;4196;48.926;8.964;2023-06-10T00:11:57;10.77;;;6.60;;
8317;SDS011;4196;48.926;8.964;2023-06-10T00:14:45;7.43;;;6.60;;
8317;SDS011;4196;48.926;8.964;2023-06-10T00:17:32;7.30;;;6.60;;
8317;SDS011;4196;48.926;8.964;2023-06-10T00:20:19;8.13;;;6.27;;
8317;SDS011;4196;48.926;8.964;2023-06-10T00:23:07;9.30;;;6.33;;
8317;SDS011;4196;48.926;8.964;2023-06-10T00:25:54;9.10;;;6.33;;
8317;SDS011;4196;48.926;8.964;2023-06-10T00:28:40;8.80;;;6.40;;
8317;SDS011;4196;48.926;8.964;2023-06-10T00:31:26;7.67;;;6.87;;
8317;SDS011;4196;48.926;8.964;2023-06-10T00:34:13;8.07;;;6.70;;
8317;SDS011;4196;48.926;8.964;2023-06-10T00:37:00;8.10;;;6.10;;
8317;SDS011;4196;48.926;8.964;2023-06-10T00:39:47;11.27;;;6.93;;
8317;SDS011;4196;48.926;8.964;2023-06-10T00:42:33;7.33;;;6.50;;
8317;SDS011;4196;48.926;8.964;2023-06-10T00:45:20;8.17;;;6.40;;
8317;SDS011;4196;48.926;8.964;2023-06-10T00:48:06;7.53;;;6.77;;
8317;SDS011;4196;48.926;8.964;2023-06-10T00:50:54;8.67;;;6.53;;
8317;SDS011;4196;48.926;8.964;2023-06-10T00:53:41;8.03;;;7.17;;
8317;SDS011;4196;48.926;8.964;2023-06-10T00:56:27;8.33;;;6.77;;
8317;SDS011;4196;48.926;8.964;2023-06-10T00:59:15;12.50;;;7.23;;
8317;SDS011;4196;48.926;8.964;2023-06-10T01:02:01;8.90;;;6.67;;
8317;SDS011;4196;48.926;8.964;2023-06-10T01:04:50;8.30;;;6.03;;
8317;SDS011;4196;48.926;8.964;2023-06-10T01:07:43;7.70;;;6.53;;
8317;SDS011;4196;48.926;8.964;2023-06-10T01:10:53;7.23;;;6.30;;
8317;SDS011;4196;48.926;8.964;2023-06-10T01:13:44;9.03;;;7.63;;
8317;SDS011;4196;48.926;8.964;2023-06-10T01:16:32;7.83;;;6.47;;
8317;SDS011;4196;48.926;8.964;2023-06-10T01:19:22;9.10;;;6.80;;
8317;SDS011;4196;48.926;8.964;2023-06-10T01:22:10;8.30;;;7.03;;
8317;SDS011;4196;48.926;8.964;2023-06-10T01:24:57;8.87;;;6.80;;
8317;SDS011;4196;48.926;8.964;2023-06-10T01:27:46;9.57;;;7.03;;
8317;SDS011;4196;48.926;8.964;2023-06-10T01:30:42;12.30;;;7.93;;
8317;SDS011;4196;48.926;8.964;2023-06-10T01:33:37;8.13;;;7.33;;
8317;SDS011;4196;48.926;8.964;2023-06-10T01:36:30;8.60;;;6.80;;
8317;SDS011;4196;48.926;8.964;2023-06-10T01:39:20;7.93;;;6.60;;
8317;SDS011;4196;48.926;8.964;2023-06-10T01:42:10;7.97;;;7.17;;
8317;SDS011;4196;48.926;8.964;2023-06-10T01:44:57;8.87;;;7.37;;
8317;SDS011;4196;48.926;8.964;2023-06-10T01:47:44;9.23;;;6.93;;
8317;SDS011;4196;48.926;8.964;2023-06-10T01:50:30;9.60;;;7.20;;
8317;SDS011;4196;48.926;8.964;2023-06-10T01:53:17;7.17;;;6.43;;
8317;SDS011;4196;48.926;8.964;2023-06-10T01:56:05;9.87;;;7.77;;
8317;SDS011;4196;48.926;8.964;2023-06-10T01:58:51;9.47;;;6.47;;
8317;SDS011;4196;48.926;8.964;2023-06-10T02:01:41;8.10;;;7.00;;
8317;SDS011;4196;48.926;8.964;2023-06-10T02:04:29;8.03;;;6.83;;
8317;SDS011;4196;48.926;8.964;2023-06-10T02:07:16;9.43;;;6.97;;
8317;SDS011;4196;48.926;8.964;2023-06-10T02:10:03;10.87;;;6.40;;
8317;SDS011;4196;48.926;8.964;2023-06-10T02:12:51;9.07;;;6.70;;
8317;SDS011;4196;48.926;8.964;2023-06-10T02:15:37;8.57;;;7.40;;
8317;SDS011;4196;48.926;8.964;2023-06-10T02:18:24;7.90;;;6.20;;
8317;SDS011;4196;48.926;8.964;2023-06-10T02:21:11;9.53;;;6.03;;
8317;SDS011;4196;48.926;8.964;2023-06-10T02:23:57;8.73;;;7.30;;
8317;SDS011;4196;48.926;8.964;2023-06-10T02:26:44;11.13;;;6.67;;
8317;SDS011;4196;48.926;8.964;2023-06-10T02:29:31;8.50;;;7.00;;
8317;SDS011;4196;48.926;8.964;2023-06-10T02:32:19;10.00;;;7.17;;
8317;SDS011;4196;48.926;8.964;2023-06-10T02:35:06;8.97;;;7.00;;
8317;SDS011;4196;48.926;8.964;2023-06-10T02:37:53;10.37;;;6.60;;
8317;SDS011;4196;48.926;8.964;2023-06-10T02:40:40;7.77;;;6.40;;
8317;SDS011;4196;48.926;8.964;2023-06-10T02:43:26;8.07;;;6.73;;
8317;SDS011;4196;48.926;8.964;2023-06-10T02:46:13;9.43;;;7.30;;
8317;SDS011;4196;48.926;8.964;2023-06-10T02:49:00;8.57;;;7.63;;
8317;SDS011;4196;48.926;8.964;2023-06-10T02:51:47;9.30;;;6.77;;
8317;SDS011;4196;48.926;8.964;2023-06-10T02:54:34;11.50;;;7.27;;
8317;SDS011;4196;48.926;8.964;2023-06-10T02:57:21;7.77;;;6.93;;
8317;SDS011;4196;48.926;8.964;2023-06-10T03:00:08;8.77;;;6.87;;
8317;SDS011;4196;48.926;8.964;2023-06-10T03:02:58;16.10;;;8.67;;
8317;SDS011;4196;48.926;8.964;2023-06-10T03:05:53;11.17;;;7.37;;
8317;SDS011;4196;48.926;8.964;2023-06-10T03:08:41;8.47;;;7.07;;
8317;SDS011;4196;48.926;8.964;2023-06-10T03:11:33;7.67;;;6.83;;
8317;SDS011;4196;48.926;8.964;2023-06-10T03:14:19;7.57;;;6.73;;
8317;SDS011;4196;48.926;8.964;2023-06-10T03:17:06;9.20;;;7.30;;
8317;SDS011;4196;48.926;8.964;2023-06-10T03:19:55;9.10;;;7.70;;
8317;SDS011;4196;48.926;8.964;2023-06-10T03:22:42;9.40;;;7.50;;
8317;SDS011;4196;48.926;8.964;2023-06-10T03:25:28;9.00;;;7.70;;
8317;SDS011;4196;48.926;8.964;2023-06-10T03:28:16;9.83;;;7.10;;
8317;SDS011;4196;48.926;8.964;2023-06-10T03:31:03;9.13;;;7.30;;
8317;SDS011;4196;48.926;8.964;2023-06-10T03:33:51;7.90;;;6.93;;
8317;SDS011;4196;48.926;8.964;2023-06-10T03:36:37;10.63;;;6.80;;
8317;SDS011;4196;48.926;8.964;2023-06-10T03:39:25;9.87;;;7.27;;
8317;SDS011;4196;48.926;8.964;2023-06-10T03:42:16;10.37;;;7.57;;
8317;SDS011;4196;48.926;8.964;2023-06-10T03:45:03;10.13;;;7.27;;
8317;SDS011;4196;48.926;8.964;2023-06-10T03:47:53;13.03;;;8.53;;
8317;SDS011;4196;48.926;8.964;2023-06-10T03:50:43;9.47;;;7.33;;
8317;SDS011;4196;48.926;8.964;2023-06-10T03:53:30;10.43;;;7.90;;
8317;SDS011;4196;48.926;8.964;2023-06-10T03:56:16;8.93;;;6.57;;
8317;SDS011;4196;48.926;8.964;2023-06-10T03:59:03;9.53;;;7.40;;
8317;SDS011;4196;48.926;8.964;2023-06-10T04:01:52;8.07;;;7.27;;
8317;SDS011;4196;48.926;8.964;2023-06-10T04:04:39;9.70;;;7.40;;
8317;SDS011;4196;48.926;8.964;2023-06-10T04:07:25;8.53;;;6.57;;
8317;SDS011;4196;48.926;8.964;2023-06-10T04:10:15;8.47;;;7.57;;
8317;SDS011;4196;48.926;8.964;2023-06-10T04:13:02;9.37;;;6.57;;
8317;SDS011;4196;48.926;8.964;2023-06-10T04:15:55;10.97;;;7.40;;
8317;SDS011;4196;48.926;8.964;2023-06-10T04:18:42;7.53;;;6.20;;
8317;SDS011;4196;48.926;8.964;2023-06-10T04:21:29;9.70;;;7.13;;
8317;SDS011;4196;48.926;8.964;2023-06-10T04:24:16;8.17;;;7.10;;
8317;SDS011;4196;48.926;8.964;2023-06-10T04:27:04;8.27;;;6.97;;
8317;SDS011;4196;48.926;8.964;2023-06-10T04:29:51;8.70;;;6.80;;
8317;SDS011;4196;48.926;8.964;2023-06-10T04:32:39;9.73;;;7.17;;
8317;SDS011;4196;48.926;8.964;2023-06-10T04:35:30;8.60;;;6.43;;
8317;SDS011;4196;48.926;8.964;2023-06-10T04:38:19;7.57;;;6.33;;
8317;SDS011;4196;48.926;8.964;2023-06-10T04:41:05;8.13;;;6.67;;
8317;SDS011;4196;48.926;8.964;2023-06-10T04:43:53;7.03;;;6.17;;
8317;SDS011;4196;48.926;8.964;2023-06-10T04:46:40;7.63;;;6.43;;
8317;SDS011;4196;48.926;8.964;2023-06-10T04:49:27;7.03;;;5.80;;
8317;SDS011;4196;48.926;8.964;2023-06-10T04:52:15;7.00;;;6.30;;
8317;SDS011;4196;48.926;8.964;2023-06-10T04:55:04;8.30;;;5.90;;
8317;SDS011;4196;48.926;8.964;2023-06-10T04:57:51;6.57;;;5.97;;
8317;SDS011;4196;48.926;8.964;2023-06-10T05:00:38;7.20;;;6.43;;
8317;SDS011;4196;48.926;8.964;2023-06-10T05:03:24;6.53;;;5.57;;
8317;SDS011;4196;48.926;8.964;2023-06-10T05:06:11;6.40;;;5.47;;
8317;SDS011;4196;48.926;8.964;2023-06-10T05:08:57;5.93;;;5.33;;
8317;SDS011;4196;48.926;8.964;2023-06-10T05:11:43;7.17;;;5.70;;
8317;SDS011;4196;48.926;8.964;2023-06-10T05:14:31;8.57;;;5.53;;
8317;SDS011;4196;48.926;8.964;2023-06-10T05:17:17;6.83;;;4.87;;
8317;SDS011;4196;48.926;8.964;2023-06-10T05:20:04;5.45;;;4.88;;
8317;SDS011;4196;48.926;8.964;2023-06-10T05:22:50;5.13;;;4.55;;
8317;SDS011;4196;48.926;8.964;2023-06-10T05:25:37;5.60;;;5.00;;
8317;SDS011;4196;48.926;8.964;2023-06-10T05:28:23;5.60;;;5.10;;
8317;SDS011;4196;48.926;8.964;2023-06-10T05:31:10;6.38;;;4.57;;
8317;SDS011;4196;48.926;8.964;2023-06-10T05:33:56;5.45;;;4.85;;
8317;SDS011;4196;48.926;8.964;2023-06-10T05:36:43;5.30;;;4.80;;
8317;SDS011;4196;48.926;8.964;2023-06-10T05:39:30;5.15;;;4.65;;
8317;SDS011;4196;48.926;8.964;2023-06-10T05:42:16;5.70;;;5.13;;
8317;SDS011;4196;48.926;8.964;2023-06-10T05:45:03;5.50;;;4.97;;
8317;SDS011;4196;48.926;8.964;2023-06-10T05:47:50;5.53;;;4.95;;
8317;SDS011;4196;48.926;8.964;2023-06-10T05:50:37;6.32;;;5.22;;
8317;SDS011;4196;48.926;8.964;2023-06-10T05:53:25;5.15;;;4.60;;
8317;SDS011;4196;48.926;8.964;2023-06-10T05:56:13;5.32;;;4.82;;
8317;SDS011;4196;48.926;8.964;2023-06-10T05:59:00;5.72;;;5.22;;
8317;SDS011;4196;48.926;8.964;2023-06-10T06:01:47;5.50;;;5.00;;
8317;SDS011;4196;48.926;8.964;2023-06-10T06:04:33;5.70;;;5.10;;
8317;SDS011;4196;48.926;8.964;2023-06-10T06:07:20;5.35;;;4.85;;
8317;SDS011;4196;48.926;8.964;2023-06-10T06:10:07;5.97;;;4.80;;
8317;SDS011;4196;48.926;8.964;2023-06-10T06:12:53;5.28;;;4.63;;
8317;SDS011;4196;48.926;8.964;2023-06-10T06:15:40;4.97;;;4.25;;
8317;SDS011;4196;48.926;8.964;2023-06-10T06:18:26;4.50;;;4.10;;
8317;SDS011;4196;48.926;8.964;2023-06-10T06:21:13;4.55;;;4.15;;
8317;SDS011;4196;48.926;8.964;2023-06-10T06:24:00;3.95;;;3.60;;
8317;SDS011;4196;48.926;8.964;2023-06-10T06:26:46;4.80;;;4.40;;
8317;SDS011;4196;48.926;8.964;2023-06-10T06:29:33;4.90;;;4.40;;
8317;SDS011;4196;48.926;8.964;2023-06-10T06:32:20;5.93;;;4.23;;
8317;SDS011;4196;48.926;8.964;2023-06-10T06:35:09;4.37;;;3.97;;
8317;SDS011;4196;48.926;8.964;2023-06-10T06:37:55;4.53;;;4.07;;
8317;SDS011;4196;48.926;8.964;2023-06-10T06:40:46;4.93;;;4.37;;
8317;SDS011;4196;48.926;8.964;2023-06-10T06:43:32;4.67;;;3.83;;
8317;SDS011;4196;48.926;8.964;2023-06-10T06:46:28;5.40;;;4.57;;
8317;SDS011;4196;48.926;8.964;2023-06-10T06:49:15;4.63;;;4.23;;
8317;SDS011;4196;48.926;8.964;2023-06-10T06:52:01;7.70;;;4.37;;
8317;SDS011;4196;48.926;8.964;2023-06-10T06:54:48;5.03;;;4.13;;
8317;SDS011;4196;48.926;8.964;2023-06-10T06:57:35;4.50;;;4.10;;
8317;SDS011;4196;48.926;8.964;2023-06-10T07:00:22;4.37;;;3.90;;
8317;SDS011;4196;48.926;8.964;2023-06-10T07:03:09;5.90;;;4.20;;
8317;SDS011;4196;48.926;8.964;2023-06-10T07:05:55;4.47;;;4.03;;
8317;SDS011;4196;48.926;8.964;2023-06-10T07:08:42;4.90;;;4.10;;
8317;SDS011;4196;48.926;8.964;2023-06-10T07:11:28;3.67;;;3.37;;
8317;SDS011;4196;48.926;8.964;2023-06-10T07:14:15;5.37;;;4.20;;
8317;SDS011;4196;48.926;8.964;2023-06-10T07:17:01;4.33;;;3.93;;
8317;SDS011;4196;48.926;8.964;2023-06-10T07:19:48;4.40;;;4.00;;
8317;SDS011;4196;48.926;8.964;2023-06-10T07:22:35;4.73;;;4.00;;
8317;SDS011;4196;48.926;8.964;2023-06-10T07:25:21;5.40;;;4.30;;
8317;SDS011;4196;48.926;8.964;2023-06-10T07:28:08;5.33;;;4.80;;
8317;SDS011;4196;48.926;8.964;2023-06-10T07:30:54;4.23;;;3.83;;
8317;SDS011;4196;48.926;8.964;2023-06-10T07:33:41;4.90;;;3.97;;
8317;SDS011;4196;48.926;8.964;2023-06-10T07:36:29;5.50;;;3.73;;
8317;SDS011;4196;48.926;8.964;2023-06-10T07:39:15;4.97;;;4.30;;
8317;SDS011;4196;48.926;8.964;2023-06-10T07:42:02;4.60;;;4.20;;
8317;SDS011;4196;48.926;8.964;2023-06-10T07:44:49;5.87;;;3.77;;
8317;SDS011;4196;48.926;8.964;2023-06-10T07:47:35;3.83;;;3.47;;
8317;SDS011;4196;48.926;8.964;2023-06-10T07:50:21;4.37;;;3.97;;
8317;SDS011;4196;48.926;8.964;2023-06-10T07:53:08;4.97;;;4.30;;
8317;SDS011;4196;48.926;8.964;2023-06-10T07:55:54;5.60;;;3.70;;
8317;SDS011;4196;48.926;8.964;2023-06-10T07:58:41;4.33;;;3.60;;
8317;SDS011;4196;48.926;8.964;2023-06-10T08:01:27;5.23;;;3.80;;
8317;SDS011;4196;48.926;8.964;2023-06-10T08:04:16;4.50;;;4.10;;
8317;SDS011;4196;48.926;8.964;2023-06-10T08:07:02;4.23;;;3.80;;
8317;SDS011;4196;48.926;8.964;2023-06-10T08:09:49;4.73;;;4.33;;
8317;SDS011;4196;48.926;8.964;2023-06-10T08:12:36;5.57;;;3.83;;
8317;SDS011;4196;48.926;8.964;2023-06-10T08:15:22;4.80;;;4.10;;
8317;SDS011;4196;48.926;8.964;2023-06-10T08:18:09;4.77;;;4.27;;
8317;SDS011;4196;48.926;8.964;2023-06-10T08:20:55;4.37;;;3.80;;
8317;SDS011;4196;48.926;8.964;2023-06-10T08:23:42;5.07;;;4.57;;
8317;SDS011;4196;48.926;8.964;2023-06-10T08:26:30;5.57;;;4.27;;
8317;SDS011;4196;48.926;8.964;2023-06-10T08:29:16;5.60;;;4.30;;
8317;SDS011;4196;48.926;8.964;2023-06-10T08:32:03;4.73;;;3.80;;
8317;SDS011;4196;48.926;8.964;2023-06-10T08:34:50;5.07;;;4.13;;
8317;SDS011;4196;48.926;8.964;2023-06-10T08:37:36;6.30;;;4.87;;
8317;SDS011;4196;48.926;8.964;2023-06-10T08:40:23;6.40;;;4.17;;
8317;SDS011;4196;48.926;8.964;2023-06-10T08:43:14;5.63;;;4.53;;
8317;SDS011;4196;48.926;8.964;2023-06-10T08:46:08;5.23;;;3.87;;
8317;SDS011;4196;48.926;8.964;2023-06-10T08:48:56;4.55;;;3.85;;
8317;SDS011;4196;48.926;8.964;2023-06-10T08:51:50;3.93;;;3.53;;
8317;SDS011;4196;48.926;8.964;2023-06-10T08:54:37;4.97;;;4.30;;
8317;SDS011;4196;48.926;8.964;2023-06-10T08:57:24;4.77;;;4.20;;
8317;SDS011;4196;48.926;8.964;2023-06-10T09:00:13;4.87;;;4.37;;
8317;SDS011;4196;48.926;8.964;2023-06-10T09:03:00;6.10;;;4.80;;
8317;SDS011;4196;48.926;8.964;2023-06-10T09:05:50;5.63;;;4.13;;
8317;SDS011;4196;48.926;8.964;2023-06-10T09:08:37;4.68;;;4.20;;
8317;SDS011;4196;48.926;8.964;2023-06-10T09:11:25;4.78;;;4.30;;
8317;SDS011;4196;48.926;8.964;2023-06-10T09:14:11;4.55;;;4.15;;
8317;SDS011;4196;48.926;8.964;2023-06-10T09:17:03;4.60;;;3.85;;
8317;SDS011;4196;48.926;8.964;2023-06-10T09:19:52;5.60;;;4.10;;
8317;SDS011;4196;48.926;8.964;2023-06-10T09:22:40;4.37;;;3.97;;
8317;SDS011;4196;48.926;8.964;2023-06-10T09:25:35;7.72;;;5.03;;
8317;SDS011;4196;48.926;8.964;2023-06-10T09:28:23;4.70;;;4.20;;
8317;SDS011;4196;48.926;8.964;2023-06-10T09:31:11;4.30;;;3.90;;
8317;SDS011;4196;48.926;8.964;2023-06-10T09:34:08;5.25;;;4.07;;
8317;SDS011;4196;48.926;8.964;2023-06-10T09:36:58;4.05;;;3.60;;
8317;SDS011;4196;48.926;8.964;2023-06-10T09:39:45;4.60;;;4.20;;
8317;SDS011;4196;48.926;8.964;2023-06-10T09:42:52;4.47;;;3.83;;
8317;SDS011;4196;48.926;8.964;2023-06-10T09:45:41;4.53;;;4.13;;
8317;SDS011;4196;48.926;8.964;2023-06-10T09:48:29;6.95;;;4.18;;
8317;SDS011;4196;48.926;8.964;2023-06-10T09:51:15;5.40;;;4.55;;
8317;SDS011;4196;48.926;8.964;2023-06-10T09:54:04;4.90;;;4.28;;
8317;SDS011;4196;48.926;8.964;2023-06-10T09:56:51;6.00;;;4.18;;
8317;SDS011;4196;48.926;8.964;2023-06-10T09:59:38;5.40;;;4.07;;
8317;SDS011;4196;48.926;8.964;2023-06-10T10:02:24;4.63;;;4.15;;
8317;SDS011;4196;48.926;8.964;2023-06-10T10:05:12;4.40;;;4.00;;
8317;SDS011;4196;48.926;8.964;2023-06-10T10:08:01;6.10;;;5.03;;
8317;SDS011;4196;48.926;8.964;2023-06-10T10:10:48;5.95;;;4.15;;
8317;SDS011;4196;48.926;8.964;2023-06-10T10:13:35;4.85;;;4.43;;
8317;SDS011;4196;48.926;8.964;2023-06-10T10:16:56;4.72;;;4.22;;
8317;SDS011;4196;48.926;8.964;2023-06-10T10:19:46;7.03;;;4.60;;
8317;SDS011;4196;48.926;8.964;2023-06-10T10:22:40;5.28;;;4.57;;
8317;SDS011;4196;48.926;8.964;2023-06-10T10:25:34;4.25;;;3.85;;
8317;SDS011;4196;48.926;8.964;2023-06-10T10:28:23;5.65;;;4.22;;
8317;SDS011;4196;48.926;8.964;2023-06-10T10:31:16;6.00;;;4.45;;
8317;SDS011;4196;48.926;8.964;2023-06-10T10:34:06;5.07;;;4.20;;
8317;SDS011;4196;48.926;8.964;2023-06-10T10:36:55;5.45;;;4.38;;
8317;SDS011;4196;48.926;8.964;2023-06-10T10:39:42;6.55;;;4.30;;
8317;SDS011;4196;48.926;8.964;2023-06-10T10:42:29;5.38;;;4.45;;
8317;SDS011;4196;48.926;8.964;2023-06-10T10:45:17;5.70;;;4.43;;
8317;SDS011;4196;48.926;8.964;2023-06-10T10:48:05;4.90;;;4.40;;
8317;SDS011;4196;48.926;8.964;2023-06-10T10:50:56;7.47;;;4.25;;
8317;SDS011;4196;48.926;8.964;2023-06-10T10:53:44;5.70;;;4.00;;
8317;SDS011;4196;48.926;8.964;2023-06-10T10:59:57;4.95;;;4.28;;
8317;SDS011;4196;48.926;8.964;2023-06-10T11:02:51;4.20;;;3.80;;
8317;SDS011;4196;48.926;8.964;2023-06-10T11:05:47;4.00;;;3.70;;
8317;SDS011;4196;48.926;8.964;2023-06-10T11:11:28;4.95;;;3.78;;
8317;SDS011;4196;48.926;8.964;2023-06-10T11:14:15;3.78;;;3.47;;
8317;SDS011;4196;48.926;8.964;2023-06-10T11:17:20;3.60;;;3.30;;
8317;SDS011;4196;48.926;8.964;2023-06-10T11:20:07;3.92;;;3.53;;
8317;SDS011;4196;48.926;8.964;2023-06-10T11:22:58;4.00;;;3.70;;
8317;SDS011;4196;48.926;8.964;2023-06-10T11:25:46;4.00;;;3.70;;
8317;SDS011;4196;48.926;8.964;2023-06-10T11:28:33;5.57;;;4.07;;
8317;SDS011;4196;48.926;8.964;2023-06-10T11:31:20;4.32;;;3.80;;
8317;SDS011;4196;48.926;8.964;2023-06-10T11:34:11;4.05;;;3.63;;
8317;SDS011;4196;48.926;8.964;2023-06-10T11:36:58;4.28;;;3.65;;
8317;SDS011;4196;48.926;8.964;2023-06-10T11:39:46;4.00;;;3.63;;
8317;SDS011;4196;48.926;8.964;2023-06-10T11:42:32;4.30;;;3.90;;
8317;SDS011;4196;48.926;8.964;2023-06-10T11:45:19;4.40;;;4.00;;
8317;SDS011;4196;48.926;8.964;2023-06-10T11:48:05;4.20;;;3.80;;
8317;SDS011;4196;48.926;8.964;2023-06-10T11:50:52;4.95;;;3.65;;
8317;SDS011;4196;48.926;8.964;2023-06-10T11:53:38;4.32;;;3.92;;
8317;SDS011;4196;48.926;8.964;2023-06-10T11:56:26;3.75;;;3.38;;
8317;SDS011;4196;48.926;8.964;2023-06-10T11:59:13;4.18;;;3.78;;
8317;SDS011;4196;48.926;8.964;2023-06-10T12:02:00;4.25;;;3.95;;
8317;SDS011;4196;48.926;8.964;2023-06-10T12:04:47;4.00;;;3.70;;
8317;SDS011;4196;48.926;8.964;2023-06-10T12:07:33;4.40;;;4.00;;
8317;SDS011;4196;48.926;8.964;2023-06-10T12:10:20;4.03;;;3.72;;
8317;SDS011;4196;48.926;8.964;2023-06-10T12:13:12;4.22;;;3.72;;
8317;SDS011;4196;48.926;8.964;2023-06-10T12:16:06;5.15;;;3.70;;
8317;SDS011;4196;48.926;8.964;2023-06-10T12:19:00;4.25;;;3.45;;
8317;SDS011;4196;48.926;8.964;2023-06-10T12:21:48;4.38;;;3.97;;
8317;SDS011;4196;48.926;8.964;2023-06-10T12:24:43;3.88;;;3.42;;
8317;SDS011;4196;48.926;8.964;2023-06-10T12:27:30;3.75;;;3.35;;
8317;SDS011;4196;48.926;8.964;2023-06-10T12:30:19;4.13;;;3.53;;
8317;SDS011;4196;48.926;8.964;2023-06-10T12:33:15;4.20;;;3.75;;
8317;SDS011;4196;48.926;8.964;2023-06-10T12:36:02;3.92;;;3.53;;
8317;SDS011;4196;48.926;8.964;2023-06-10T12:38:50;5.80;;;3.72;;
8317;SDS011;4196;48.926;8.964;2023-06-10T12:41:38;4.20;;;3.78;;
8317;SDS011;4196;48.926;8.964;2023-06-10T12:44:35;5.53;;;5.03;;
8317;SDS011;4196;48.926;8.964;2023-06-10T12:47:31;3.75;;;3.33;;
8317;SDS011;4196;48.926;8.964;2023-06-10T12:50:22;4.43;;;3.83;;
8317;SDS011;4196;48.926;8.964;2023-06-10T12:53:08;4.65;;;4.03;;
8317;SDS011;4196;48.926;8.964;2023-06-10T12:55:57;3.58;;;3.28;;
8317;SDS011;4196;48.926;8.964;2023-06-10T12:58:44;4.28;;;3.15;;
8317;SDS011;4196;48.926;8.964;2023-06-10T13:01:31;3.78;;;3.47;;
8317;SDS011;4196;48.926;8.964;2023-06-10T13:04:20;3.65;;;3.10;;
8317;SDS011;4196;48.926;8.964;2023-06-10T13:07:07;4.25;;;3.35;;
8317;SDS011;4196;48.926;8.964;2023-06-10T13:09:54;4.15;;;3.75;;
8317;SDS011;4196;48.926;8.964;2023-06-10T13:12:41;4.25;;;3.75;;
8317;SDS011;4196;48.926;8.964;2023-06-10T13:15:33;3.50;;;3.20;;
8317;SDS011;4196;48.926;8.964;2023-06-10T13:18:28;3.38;;;3.08;;
8317;SDS011;4196;48.926;8.964;2023-06-10T13:21:15;4.22;;;3.47;;
8317;SDS011;4196;48.926;8.964;2023-06-10T13:24:02;3.80;;;3.42;;
8317;SDS011;4196;48.926;8.964;2023-06-10T13:26:49;4.95;;;3.95;;
8317;SDS011;4196;48.926;8.964;2023-06-10T13:29:35;6.25;;;3.42;;
8317;SDS011;4196;48.926;8.964;2023-06-10T13:32:22;3.72;;;3.40;;
8317;SDS011;4196;48.926;8.964;2023-06-10T13:35:09;3.97;;;2.90;;
8317;SDS011;4196;48.926;8.964;2023-06-10T13:37:56;3.05;;;2.85;;
8317;SDS011;4196;48.926;8.964;2023-06-10T13:40:43;3.38;;;3.08;;
8317;SDS011;4196;48.926;8.964;2023-06-10T13:43:30;3.65;;;3.35;;
8317;SDS011;4196;48.926;8.964;2023-06-10T13:46:16;3.42;;;3.13;;
8317;SDS011;4196;48.926;8.964;2023-06-10T13:49:03;4.45;;;3.10;;
8317;SDS011;4196;48.926;8.964;2023-06-10T13:51:49;3.15;;;2.85;;
8317;SDS011;4196;48.926;8.964;2023-06-10T13:54:36;3.13;;;2.88;;
8317;SDS011;4196;48.926;8.964;2023-06-10T13:57:22;3.50;;;3.15;;
8317;SDS011;4196;48.926;8.964;2023-06-10T14:00:09;3.40;;;3.05;;
8317;SDS011;4196;48.926;8.964;2023-06-10T14:02:56;3.08;;;2.60;;
8317;SDS011;4196;48.926;8.964;2023-06-10T14:05:43;3.35;;;3.03;;
8317;SDS011;4196;48.926;8.964;2023-06-10T14:08:30;3.20;;;2.92;;
8317;SDS011;4196;48.926;8.964;2023-06-10T14:11:16;3.35;;;3.05;;
8317;SDS011;4196;48.926;8.964;2023-06-10T14:14:03;3.90;;;3.50;;
8317;SDS011;4196;48.926;8.964;2023-06-10T14:16:49;4.28;;;3.17;;
8317;SDS011;4196;48.926;8.964;2023-06-10T14:19:36;3.47;;;3.17;;
8317;SDS011;4196;48.926;8.964;2023-06-10T14:22:22;3.15;;;2.83;;
8317;SDS011;4196;48.926;8.964;2023-06-10T14:25:09;5.25;;;3.58;;
8317;SDS011;4196;48.926;8.964;2023-06-10T14:27:57;3.80;;;3.47;;
8317;SDS011;4196;48.926;8.964;2023-06-10T14:30:44;3.67;;;3.38;;
8317;SDS011;4196;48.926;8.964;2023-06-10T14:33:31;3.60;;;3.30;;
8317;SDS011;4196;48.926;8.964;2023-06-10T14:36:18;3.47;;;3.17;;
8317;SDS011;4196;48.926;8.964;2023-06-10T14:39:05;3.42;;;3.13;;
8317;SDS011;4196;48.926;8.964;2023-06-10T14:41:51;3.90;;;3.60;;
8317;SDS011;4196;48.926;8.964;2023-06-10T14:44:41;3.30;;;2.53;;
8317;SDS011;4196;48.926;8.964;2023-06-10T14:47:27;3.45;;;2.90;;
8317;SDS011;4196;48.926;8.964;2023-06-10T14:50:14;3.45;;;3.15;;
8317;SDS011;4196;48.926;8.964;2023-06-10T14:53:01;3.33;;;3.03;;
8317;SDS011;4196;48.926;8.964;2023-06-10T14:55:47;3.22;;;3.03;;
8317;SDS011;4196;48.926;8.964;2023-06-10T14:58:34;4.50;;;3.42;;
8317;SDS011;4196;48.926;8.964;2023-06-10T15:01:20;4.35;;;3.53;;
8317;SDS011;4196;48.926;8.964;2023-06-10T15:04:07;3.58;;;3.17;;
8317;SDS011;4196;48.926;8.964;2023-06-10T15:06:54;3.97;;;3.10;;
8317;SDS011;4196;48.926;8.964;2023-06-10T15:09:41;3.63;;;3.33;;
8317;SDS011;4196;48.926;8.964;2023-06-10T15:12:28;3.63;;;3.30;;
8317;SDS011;4196;48.926;8.964;2023-06-10T15:15:15;3.78;;;3.40;;
8317;SDS011;4196;48.926;8.964;2023-06-10T15:18:01;3.13;;;2.92;;
8317;SDS011;4196;48.926;8.964;2023-06-10T15:20:48;3.50;;;3.20;;
8317;SDS011;4196;48.926;8.964;2023-06-10T15:23:34;3.40;;;3.10;;
8317;SDS011;4196;48.926;8.964;2023-06-10T15:26:21;3.22;;;2.92;;
8317;SDS011;4196;48.926;8.964;2023-06-10T15:29:07;4.57;;;3.35;;
8317;SDS011;4196;48.926;8.964;2023-06-10T15:31:55;3.72;;;3.40;;
8317;SDS011;4196;48.926;8.964;2023-06-10T15:34:42;7.82;;;4.07;;
8317;SDS011;4196;48.926;8.964;2023-06-10T15:37:28;3.00;;;2.80;;
8317;SDS011;4196;48.926;8.964;2023-06-10T15:40:14;3.33;;;3.03;;
8317;SDS011;4196;48.926;8.964;2023-06-10T15:43:01;3.50;;;3.20;;
8317;SDS011;4196;48.926;8.964;2023-06-10T15:45:47;3.40;;;3.08;;
8317;SDS011;4196;48.926;8.964;2023-06-10T15:48:34;3.50;;;3.20;;
8317;SDS011;4196;48.926;8.964;2023-06-10T15:51:20;7.93;;;3.30;;
8317;SDS011;4196;48.926;8.964;2023-06-10T15:54:07;3.30;;;3.00;;
8317;SDS011;4196;48.926;8.964;2023-06-10T15:56:54;3.13;;;2.83;;
8317;SDS011;4196;48.926;8.964;2023-06-10T15:59:40;3.38;;;3.00;;
8317;SDS011;4196;48.926;8.964;2023-06-10T16:02:27;3.60;;;3.30;;
8317;SDS011;4196;48.926;8.964;2023-06-10T16:05:14;4.60;;;3.28;;
8317;SDS011;4196;48.926;8.964;2023-06-10T16:08:01;3.30;;;2.97;;
8317;SDS011;4196;48.926;8.964;2023-06-10T16:10:48;3.97;;;3.28;;
8317;SDS011;4196;48.926;8.964;2023-06-10T16:13:35;4.20;;;3.33;;
8317;SDS011;4196;48.926;8.964;2023-06-10T16:16:25;3.20;;;2.92;;
8317;SDS011;4196;48.926;8.964;2023-06-10T16:19:12;3.35;;;3.05;;
8317;SDS011;4196;48.926;8.964;2023-06-10T16:21:59;3.40;;;3.10;;
8317;SDS011;4196;48.926;8.964;2023-06-10T16:24:45;3.22;;;2.80;;
8317;SDS011;4196;48.926;8.964;2023-06-10T16:27:32;3.80;;;3.20;;
8317;SDS011;4196;48.926;8.964;2023-06-10T16:30:19;2.85;;;2.65;;
8317;SDS011;4196;48.926;8.964;2023-06-10T16:33:05;4.03;;;3.03;;
8317;SDS011;4196;48.926;8.964;2023-06-10T16:35:52;4.03;;;2.90;;
8317;SDS011;4196;48.926;8.964;2023-06-10T16:38:39;2.58;;;2.38;;
8317;SDS011;4196;48.926;8.964;2023-06-10T16:41:25;3.63;;;3.03;;
8317;SDS011;4196;48.926;8.964;2023-06-10T16:44:12;3.22;;;3.00;;
8317;SDS011;4196;48.926;8.964;2023-06-10T16:47:01;3.60;;;3.28;;
8317;SDS011;4196;48.926;8.964;2023-06-10T16:49:48;3.40;;;3.10;;
8317;SDS011;4196;48.926;8.964;2023-06-10T16:52:36;3.20;;;2.90;;
8317;SDS011;4196;48.926;8.964;2023-06-10T16:55:22;3.53;;;2.95;;
8317;SDS011;4196;48.926;8.964;2023-06-10T16:58:09;3.30;;;3.00;;
8317;SDS011;4196;48.926;8.964;2023-06-10T17:00:56;4.45;;;3.20;;
8317;SDS011;4196;48.926;8.964;2023-06-10T17:03:50;3.00;;;2.80;;
8317;SDS011;4196;48.926;8.964;2023-06-10T17:06:37;3.17;;;2.88;;
8317;SDS011;4196;48.926;8.964;2023-06-10T17:09:23;4.00;;;2.95;;
8317;SDS011;4196;48.926;8.964;2023-06-10T17:12:10;2.83;;;2.53;;
8317;SDS011;4196;48.926;8.964;2023-06-10T17:14:57;2.90;;;2.70;;
8317;SDS011;4196;48.926;8.964;2023-06-10T17:17:44;3.70;;;3.00;;
8317;SDS011;4196;48.926;8.964;2023-06-10T17:20:30;3.05;;;2.80;;
8317;SDS011;4196;48.926;8.964;2023-06-10T17:23:17;3.20;;;3.00;;
8317;SDS011;4196;48.926;8.964;2023-06-10T17:26:04;2.90;;;2.60;;
8317;SDS011;4196;48.926;8.964;2023-06-10T17:28:50;3.90;;;3.00;;